Time;durP1;ratioP1;P1;durP2;ratioP2;P2;SDS_P1;SDS_P2;PMS_P1;PMS_P2;Temp;Humidity;BMP_temperature;BMP_pressure;BME280_temperature;BME280_humidity;BME280_pressure;Samples;Min_cycle;Max_cycle;Signal;HPM_P1;HPM_P2
2024/03/06 06:46:18;;;;;;;19.63;11.60;;;;;;;1.09;100.00;101649.69;6271375;22;20034;-90
2024/03/06 06:48:48;;;;;;;26.20;12.27;;;;;;;0.90;100.00;101655.06;6215524;23;20027;-90
2024/03/06 06:51:16;;;;;;;26.10;12.87;;;;;;;1.02;100.00;101657.25;6224141;23;20020;-91
2024/03/06 06:53:43;;;;;;;72.73;16.30;;;;;;;0.83;100.00;101658.28;6167890;23;20012;-90
2024/03/06 06:56:11;;;;;;;26.50;12.13;;;;;;;0.99;100.00;101651.91;6216202;23;20024;-90
2024/03/06 06:58:42;;;;;;;26.83;13.40;;;;;;;1.12;100.00;101660.19;6216238;23;20067;-90
2024/03/06 07:01:10;;;;;;;24.27;13.40;;;;;;;1.12;100.00;101660.19;6119511;23;20365;-91
2024/03/06 07:03:37;;;;;;;27.60;14.27;;;;;;;1.28;100.00;101658.09;6242984;23;20036;-90
2024/03/06 07:06:04;;;;;;;27.20;13.90;;;;;;;1.31;100.00;101666.91;6191331;23;20414;-90
2024/03/06 07:08:32;;;;;;;24.77;14.17;;;;;;;1.26;100.00;101665.88;6166382;23;20024;-90
2024/03/06 07:10:59;;;;;;;30.63;14.87;;;;;;;1.39;100.00;101664.53;6240958;23;20103;-89
2024/03/06 07:13:26;;;;;;;25.93;15.07;;;;;;;1.46;100.00;101670.84;6090965;23;20482;-90
2024/03/06 07:15:53;;;;;;;38.57;16.73;;;;;;;1.56;100.00;101673.78;6216926;23;20359;-89
2024/03/06 07:18:21;;;;;;;27.47;14.07;;;;;;;1.70;100.00;101674.25;6235844;23;20457;-91
2024/03/06 07:20:48;;;;;;;26.30;14.47;;;;;;;1.85;100.00;101677.34;6216035;23;20020;-89
2024/03/06 07:23:15;;;;;;;27.47;15.67;;;;;;;2.01;100.00;101689.09;6242437;23;20444;-89
2024/03/06 07:25:42;;;;;;;33.20;16.47;;;;;;;2.04;100.00;101686.59;6114696;23;20036;-89
2024/03/06 07:28:09;;;;;;;27.97;14.67;;;;;;;2.03;100.00;101684.84;6215599;23;20016;-89
2024/03/06 07:30:36;;;;;;;33.93;16.33;;;;;;;2.14;100.00;101682.53;6114397;23;20017;-89
2024/03/06 07:33:04;;;;;;;32.13;17.63;;;;;;;2.22;100.00;101679.31;6215953;23;20378;-89
2024/03/06 07:35:31;;;;;;;25.20;15.17;;;;;;;2.33;100.00;101682.25;6216271;23;20030;-89
2024/03/06 07:37:59;;;;;;;35.77;17.03;;;;;;;2.28;100.00;101683.84;6190443;23;20024;-88
2024/03/06 07:40:26;;;;;;;24.90;14.90;;;;;;;2.33;100.00;101686.56;6216784;23;20044;-89
2024/03/06 07:42:53;;;;;;;27.63;16.53;;;;;;;2.26;100.00;101690.72;6217348;23;20016;-89
2024/03/06 07:45:21;;;;;;;27.43;14.10;;;;;;;2.38;100.00;101685.88;6168087;23;20015;-88
2024/03/06 07:47:48;;;;;;;29.23;14.53;;;;;;;2.35;100.00;101697.91;6217438;22;20027;-89
2024/03/06 07:50:18;;;;;;;34.30;18.07;;;;;;;2.24;100.00;101701.09;6168854;23;20067;-89
2024/03/06 07:52:46;;;;;;;28.93;15.57;;;;;;;2.39;100.00;101694.59;6192430;23;20020;-89
2024/03/06 07:55:13;;;;;;;25.00;14.43;;;;;;;2.39;100.00;101692.84;6192399;23;20016;-89
2024/03/06 07:57:41;;;;;;;30.73;16.43;;;;;;;2.32;100.00;101705.66;6192604;22;20027;-88
2024/03/06 08:00:15;;;;;;;28.20;15.70;;;;;;;2.45;100.00;101710.41;6194604;23;20034;-88
2024/03/06 08:02:49;;;;;;;35.10;17.80;;;;;;;2.66;100.00;101712.75;6193331;23;20455;-89
2024/03/06 08:05:17;;;;;;;31.00;15.20;;;;;;;2.73;100.00;101710.34;6169956;23;20021;-89
2024/03/06 08:07:45;;;;;;;29.50;17.50;;;;;;;2.85;100.00;101709.81;6244298;22;20024;-88
2024/03/06 08:10:13;;;;;;;31.03;17.50;;;;;;;3.08;100.00;101721.75;6218178;23;20105;-89
2024/03/06 08:12:44;;;;;;;34.33;17.97;;;;;;;3.12;100.00;101725.34;6116180;23;20450;-88
2024/03/06 08:15:12;;;;;;;32.40;17.90;;;;;;;3.12;100.00;101729.69;6192375;23;20016;-88
2024/03/06 08:17:43;;;;;;;29.60;15.97;;;;;;;3.14;100.00;101722.78;6115836;22;20040;-89
2024/03/06 08:20:11;;;;;;;31.40;17.03;;;;;;;3.27;100.00;101732.69;6193028;23;20028;-88
2024/03/06 08:22:42;;;;;;;29.07;16.37;;;;;;;3.34;100.00;101724.19;6192776;23;20047;-88
2024/03/06 08:25:11;;;;;;;27.60;16.60;;;;;;;3.50;100.00;101730.69;6217199;23;20080;-88
2024/03/06 08:27:40;;;;;;;32.07;17.73;;;;;;;3.46;100.00;101734.97;6091982;22;20027;-88
2024/03/06 08:30:09;;;;;;;28.47;16.70;;;;;;;3.59;100.00;101739.63;6192310;23;20020;-89
2024/03/06 08:32:37;;;;;;;37.27;17.60;;;;;;;3.69;100.00;101738.13;6217803;23;20431;-87
2024/03/06 08:35:06;;;;;;;32.03;17.47;;;;;;;3.53;100.00;101744.72;6217382;23;20036;-88
2024/03/06 08:37:34;;;;;;;37.33;19.67;;;;;;;3.54;100.00;101748.22;6116577;22;20435;-88
2024/03/06 08:40:01;;;;;;;30.20;17.60;;;;;;;3.40;100.00;101758.31;6217963;23;20039;-88
2024/03/06 08:42:28;;;;;;;30.97;17.53;;;;;;;3.58;100.00;101755.28;6091625;23;20043;-88
2024/03/06 08:44:56;;;;;;;31.73;18.97;;;;;;;3.72;100.00;101760.88;6192102;23;20049;-87
2024/03/06 08:47:23;;;;;;;33.20;18.73;;;;;;;3.81;100.00;101756.75;6192428;23;20368;-88
2024/03/06 08:49:51;;;;;;;35.37;18.57;;;;;;;3.82;100.00;101758.50;6216883;23;20103;-88
2024/03/06 08:52:18;;;;;;;35.63;20.00;;;;;;;3.77;100.00;101761.84;6192636;23;20020;-88
2024/03/06 08:54:45;;;;;;;33.80;19.80;;;;;;;3.84;100.00;101759.44;6167914;23;20012;-88
2024/03/06 08:57:12;;;;;;;30.13;18.20;;;;;;;3.97;100.00;101760.63;6218639;23;20020;-88
2024/03/06 08:59:39;;;;;;;33.70;19.60;;;;;;;3.91;100.00;101763.97;6236290;23;20026;-89
2024/03/06 09:02:14;;;;;;;34.33;19.70;;;;;;;3.98;100.00;101766.72;6167182;23;20067;-88
2024/03/06 09:04:42;;;;;;;40.17;20.10;;;;;;;4.00;100.00;101765.03;6167282;23;20067;-87
2024/03/06 09:07:10;;;;;;;34.23;19.73;;;;;;;4.14;100.00;101764.50;6115333;23;20058;-89
2024/03/06 09:09:37;;;;;;;35.43;19.67;;;;;;;3.99;100.00;101766.75;6191325;23;20020;-89
2024/03/06 09:12:06;;;;;;;34.10;20.27;;;;;;;4.08;100.00;101779.16;6091839;23;20546;-89
2024/03/06 09:14:33;;;;;;;38.70;21.30;;;;;;;4.13;100.00;101772.34;6191620;23;20023;-89
2024/03/06 09:17:01;;;;;;;33.90;18.07;;;;;;;4.20;100.00;101768.97;6191660;23;20024;-88
2024/03/06 09:19:28;;;;;;;34.93;19.20;;;;;;;4.37;100.00;101778.13;6115213;23;20026;-88
2024/03/06 09:21:56;;;;;;;40.13;20.67;;;;;;;4.47;100.00;101766.13;6192243;23;20020;-88
2024/03/06 09:24:24;;;;;;;38.70;20.23;;;;;;;4.45;100.00;101776.53;6191296;23;20391;-89
2024/03/06 09:26:52;;;;;;;38.63;21.77;;;;;;;4.64;100.00;101777.84;6192251;23;20028;-88
2024/03/06 09:29:20;;;;;;;35.27;20.30;;;;;;;4.72;100.00;101783.25;6216621;23;20416;-87
2024/03/06 09:31:48;;;;;;;39.03;21.80;;;;;;;4.64;100.00;101783.09;6216271;23;20040;-89
2024/03/06 09:34:16;;;;;;;33.13;20.03;;;;;;;4.70;100.00;101782.31;6216326;23;20103;-88
2024/03/06 09:36:47;;;;;;;35.60;20.57;;;;;;;4.72;100.00;101792.00;6191721;23;20107;-88
2024/03/06 09:39:19;;;;;;;41.53;22.73;;;;;;;4.90;100.00;101786.25;6115799;23;20024;-88
2024/03/06 09:41:47;;;;;;;40.63;20.73;;;;;;;4.99;100.00;101793.41;6243552;23;20391;-88
2024/03/06 09:44:14;;;;;;;40.03;21.97;;;;;;;5.14;100.00;101800.72;6216576;23;20043;-88
2024/03/06 09:46:46;;;;;;;36.43;21.97;;;;;;;5.28;100.00;101787.00;6191967;23;20090;-89
2024/03/06 09:49:15;;;;;;;34.93;20.73;;;;;;;5.46;100.00;101789.06;6191082;23;20104;-88
2024/03/06 09:51:47;;;;;;;40.37;22.00;;;;;;;5.56;100.00;101798.91;6215875;23;20325;-87
2024/03/06 09:54:14;;;;;;;40.67;23.43;;;;;;;5.62;100.00;101795.47;6118162;23;20484;-88
2024/03/06 09:56:49;;;;;;;39.00;21.73;;;;;;;5.90;100.00;101795.16;6217104;23;20044;-87
2024/03/06 09:59:16;;;;;;;39.53;21.73;;;;;;;6.23;99.02;101793.06;6115112;23;20102;-88
2024/03/06 10:01:52;;;;;;;36.63;20.70;;;;;;;6.59;98.70;101784.81;6191208;23;20023;-88
2024/03/06 10:04:24;;;;;;;42.90;22.27;;;;;;;6.98;98.17;101787.97;6240717;23;20398;-88
2024/03/06 10:07:02;;;;;;;40.27;22.17;;;;;;;7.42;93.27;101786.72;6191092;23;20028;-88
2024/03/06 10:09:33;;;;;;;36.03;21.97;;;;;;;7.44;86.16;101799.00;6115945;23;20020;-89
2024/03/06 10:12:00;;;;;;;40.17;21.73;;;;;;;7.22;82.92;101795.25;6216932;23;20038;-89
2024/03/06 10:14:32;;;;;;;40.63;22.20;;;;;;;7.01;84.54;101793.25;6191733;23;20028;-88
2024/03/06 10:17:00;;;;;;;43.50;21.97;;;;;;;7.47;88.29;101795.50;6166867;23;20024;-89
2024/03/06 10:19:29;;;;;;;41.83;22.53;;;;;;;7.63;84.64;101792.19;6191100;23;20024;-88
2024/03/06 10:21:57;;;;;;;34.50;22.20;;;;;;;7.85;81.06;101782.75;6215719;23;20020;-87
2024/03/06 10:24:28;;;;;;;33.83;20.93;;;;;;;7.75;81.18;101792.31;6116420;23;20035;-88
2024/03/06 10:26:58;;;;;;;39.77;22.30;;;;;;;7.84;78.01;101791.50;6166546;23;20521;-88
2024/03/06 10:29:27;;;;;;;32.17;20.70;;;;;;;7.52;75.17;101785.94;6116125;23;20392;-87
2024/03/06 10:31:56;;;;;;;35.97;21.53;;;;;;;7.19;78.69;101792.59;6191600;23;20128;-87
2024/03/06 10:34:25;;;;;;;38.03;22.43;;;;;;;7.27;79.45;101787.44;6191182;23;20042;-89
2024/03/06 10:36:57;;;;;;;41.57;25.30;;;;;;;7.44;80.37;101788.50;6166451;23;20028;-87
2024/03/06 10:39:24;;;;;;;46.57;25.37;;;;;;;7.30;77.93;101782.19;6204886;23;20297;-89
2024/03/06 10:41:56;;;;;;;44.30;24.47;;;;;;;7.59;76.64;101790.41;6196443;23;20020;-88
2024/03/06 10:44:27;;;;;;;48.23;26.43;;;;;;;7.80;76.79;101784.44;6114672;23;20048;-88
2024/03/06 10:47:02;;;;;;;49.20;26.73;;;;;;;7.75;74.33;101775.66;6191049;23;20020;-88
2024/03/06 10:49:31;;;;;;;51.17;27.43;;;;;;;8.01;73.99;101783.75;6117725;23;20099;-88
2024/03/06 10:51:59;;;;;;;45.70;21.60;;;;;;;8.32;74.22;101774.31;6191176;23;20459;-88
2024/03/06 10:54:28;;;;;;;44.60;23.83;;;;;;;8.63;72.17;101772.78;6190305;23;20103;-88
2024/03/06 10:56:55;;;;;;;52.70;28.90;;;;;;;8.40;70.73;101780.53;6190598;23;20044;-87
2024/03/06 10:59:29;;;;;;;52.53;26.63;;;;;;;8.48;69.83;101783.22;6215195;23;20028;-87
2024/03/06 11:02:02;;;;;;;53.00;27.27;;;;;;;8.59;70.34;101785.06;6191593;23;20020;-87
2024/03/06 11:04:33;;;;;;;67.57;31.50;;;;;;;7.77;71.68;101795.81;6093496;23;20066;-89
2024/03/06 11:07:02;;;;;;;65.80;31.93;;;;;;;7.80;74.01;101789.69;6215433;23;20024;-89
2024/03/06 11:09:34;;;;;;;71.87;32.33;;;;;;;8.04;74.04;101789.03;6114510;23;20020;-90
2024/03/06 11:12:02;;;;;;;71.00;32.43;;;;;;;7.94;72.90;101788.09;6216532;23;20024;-88
2024/03/06 11:14:31;;;;;;;67.43;31.17;;;;;;;8.22;73.76;101786.53;6092031;23;20095;-88
2024/03/06 11:17:10;;;;;;;75.17;34.47;;;;;;;8.35;71.16;101791.06;6218173;23;20074;-87
2024/03/06 11:20:17;;;;;;;68.80;32.13;;;;;;;8.37;70.56;101793.69;6168449;23;20324;-88
2024/03/06 11:22:58;;;;;;;66.90;30.57;;;;;;;8.45;69.87;101792.00;6132405;23;20028;-87
2024/03/06 11:25:46;;;;;;;62.33;30.47;;;;;;;8.43;70.93;101785.84;6132179;23;20017;-87
2024/03/06 11:28:20;;;;;;;75.27;32.77;;;;;;;8.21;72.35;101786.53;6175822;23;20028;-87
2024/03/06 11:31:09;;;;;;;71.20;30.33;;;;;;;8.50;71.86;101792.03;6217437;23;20363;-88
2024/03/06 11:33:40;;;;;;;66.97;30.27;;;;;;;8.55;69.94;101782.41;6217075;23;20024;-87
2024/03/06 11:36:20;;;;;;;75.80;32.03;;;;;;;8.42;71.18;101786.72;6116046;23;20090;-87
2024/03/06 11:39:04;;;;;;;56.27;31.10;;;;;;;8.60;70.45;101789.47;6217108;23;20020;-87
2024/03/06 11:41:33;;;;;;;67.53;31.10;;;;;;;8.45;69.04;101781.47;6244625;23;20020;-87
2024/03/06 11:44:00;;;;;;;64.93;32.53;;;;;;;8.28;71.33;101786.59;6092573;23;20254;-89
2024/03/06 11:46:43;;;;;;;72.70;31.37;;;;;;;8.52;70.55;101785.03;6217542;23;20016;-88
2024/03/06 11:49:25;;;;;;;67.67;34.27;;;;;;;8.69;69.11;101775.47;6217423;23;20026;-89
2024/03/06 11:51:53;;;;;;;69.28;32.13;;;;;;;8.89;68.81;101776.41;6193125;23;20028;-87
2024/03/06 11:54:24;;;;;;;70.70;33.80;;;;;;;8.74;66.56;101781.59;6192113;23;20024;-88
2024/03/06 11:56:55;;;;;;;68.13;32.17;;;;;;;9.00;67.51;101787.91;6095932;23;20020;-87
2024/03/06 11:59:40;;;;;;;66.13;31.13;;;;;;;8.66;65.30;101785.97;6167363;23;20355;-87
2024/03/06 12:02:09;;;;;;;65.07;32.03;;;;;;;8.44;66.44;101788.47;6090011;23;20053;-87
2024/03/06 12:04:37;;;;;;;71.13;33.53;;;;;;;8.90;68.12;101779.94;6217967;23;20016;-88
2024/03/06 12:07:06;;;;;;;65.57;30.80;;;;;;;9.00;64.93;101773.84;6192777;23;20046;-87
2024/03/06 12:09:35;;;;;;;67.60;32.33;;;;;;;9.23;64.07;101774.78;6217672;23;20031;-88
2024/03/06 12:12:09;;;;;;;72.93;33.55;;;;;;;8.92;63.43;101779.09;6122810;23;20020;-88
2024/03/06 12:14:38;;;;;;;63.70;29.73;;;;;;;9.27;64.41;101778.31;6217852;23;20020;-89
2024/03/06 12:17:12;;;;;;;63.58;30.60;;;;;;;9.08;61.79;101763.31;6117448;23;20019;-89
2024/03/06 12:19:43;;;;;;;61.72;31.60;;;;;;;9.14;64.02;101771.25;6118738;23;20383;-90
2024/03/06 12:22:10;;;;;;;58.87;31.73;;;;;;;8.93;63.32;101770.31;6185881;23;20395;-88
2024/03/06 12:24:37;;;;;;;58.20;29.10;;;;;;;8.58;63.28;101770.16;6191603;23;20498;-91
2024/03/06 12:27:07;;;;;;;54.03;28.97;;;;;;;8.27;64.66;101781.31;6167362;23;20252;-87
2024/03/06 12:29:35;;;;;;;58.40;28.70;;;;;;;8.14;66.50;101769.81;6243724;22;20359;-88
2024/03/06 12:32:03;;;;;;;52.13;28.07;;;;;;;8.32;66.05;101769.91;6244462;23;20024;-88
2024/03/06 12:34:31;;;;;;;51.10;24.93;;;;;;;8.55;66.22;101756.94;6115991;23;20398;-89
2024/03/06 12:37:11;;;;;;;51.57;25.27;;;;;;;9.00;65.59;101750.13;6216852;23;20027;-89
2024/03/06 12:39:39;;;;;;;46.63;25.03;;;;;;;9.30;62.47;101754.59;6217294;23;20020;-89
2024/03/06 12:42:11;;;;;;;42.92;24.85;;;;;;;9.48;60.56;101745.81;6218119;23;20038;-88
2024/03/06 12:44:39;;;;;;;44.75;24.05;;;;;;;9.65;61.45;101746.72;6216994;23;20043;-88
2024/03/06 12:47:06;;;;;;;38.53;21.45;;;;;;;9.87;59.79;101747.63;6217402;23;20103;-88
2024/03/06 12:49:34;;;;;;;25.80;16.23;;;;;;;9.73;57.98;101742.31;6091513;23;20024;-88
2024/03/06 12:52:01;;;;;;;28.17;16.40;;;;;;;9.68;58.20;101746.75;6216713;23;20020;-88
2024/03/06 12:54:31;;;;;;;20.00;13.80;;;;;;;9.68;59.42;101735.31;6119424;23;20518;-88
2024/03/06 12:56:58;;;;;;;21.42;13.38;;;;;;;9.73;59.51;101750.25;6217289;23;20020;-88
2024/03/06 12:59:25;;;;;;;17.00;12.13;;;;;;;9.51;58.43;101751.13;6216780;23;20517;-89
2024/03/06 13:01:54;;;;;;;17.40;12.52;;;;;;;9.40;59.34;101758.13;6217397;23;20024;-87
2024/03/06 13:04:21;;;;;;;16.67;11.90;;;;;;;9.32;59.70;101751.06;6217995;23;20067;-87
2024/03/06 13:06:48;;;;;;;16.58;10.95;;;;;;;9.12;59.97;101755.44;6218020;23;20086;-88
2024/03/06 13:09:16;;;;;;;14.13;10.43;;;;;;;9.03;61.94;101753.63;6116406;23;20467;-88
2024/03/06 13:11:43;;;;;;;13.18;10.07;;;;;;;9.01;62.12;101752.75;6216905;23;20119;-88
2024/03/06 13:14:11;;;;;;;14.97;10.17;;;;;;;8.86;60.48;101765.00;6217304;23;20339;-88
2024/03/06 13:16:39;;;;;;;12.77;8.75;;;;;;;8.84;60.51;101756.22;6217147;23;20510;-88
2024/03/06 13:19:07;;;;;;;16.73;9.53;;;;;;;8.82;61.42;101750.03;6092756;23;20048;-87
2024/03/06 13:21:35;;;;;;;14.00;9.70;;;;;;;8.79;62.13;101763.19;6216764;23;20525;-88
2024/03/06 13:24:02;;;;;;;14.63;10.27;;;;;;;8.72;60.90;101749.13;6216985;23;20096;-88
2024/03/06 13:26:30;;;;;;;13.83;9.50;;;;;;;8.74;62.31;101753.53;6216892;23;20044;-88
2024/03/06 13:28:59;;;;;;;13.20;8.97;;;;;;;8.79;61.89;101756.19;6192755;23;20016;-88
2024/03/06 13:31:27;;;;;;;14.30;9.80;;;;;;;8.65;61.25;101749.97;6217529;23;20047;-87
2024/03/06 13:33:54;;;;;;;11.80;8.77;;;;;;;8.51;62.62;101751.66;6216835;23;20027;-88
2024/03/06 13:36:22;;;;;;;14.17;10.57;;;;;;;8.68;63.24;101745.59;6216941;23;20062;-88
2024/03/06 13:38:49;;;;;;;15.23;10.60;;;;;;;8.58;64.09;101754.34;6192226;23;20020;-88
2024/03/06 13:41:16;;;;;;;13.73;10.13;;;;;;;8.56;65.49;101752.53;6192119;23;20069;-89
2024/03/06 13:43:44;;;;;;;13.60;9.90;;;;;;;8.70;64.96;101754.38;6116131;23;20024;-88
2024/03/06 13:46:11;;;;;;;11.97;8.90;;;;;;;8.72;65.26;101755.25;6191486;23;20075;-88
2024/03/06 13:48:38;;;;;;;13.10;10.20;;;;;;;8.36;64.22;101753.31;6116013;23;20427;-88
2024/03/06 13:51:05;;;;;;;12.60;9.70;;;;;;;8.34;64.61;101762.06;6192383;23;20019;-88
2024/03/06 13:53:32;;;;;;;12.17;8.73;;;;;;;8.32;63.92;101766.41;6091713;23;20027;-88
2024/03/06 13:55:59;;;;;;;13.83;10.57;;;;;;;8.28;64.09;101762.00;6217195;23;20016;-89
2024/03/06 13:58:30;;;;;;;13.53;8.63;;;;;;;8.19;64.87;101768.09;6191737;23;20020;-89
2024/03/06 14:00:57;;;;;;;15.20;10.07;;;;;;;8.18;67.11;101768.97;6217020;23;20066;-88
2024/03/06 14:03:25;;;;;;;12.90;9.07;;;;;;;8.15;65.57;101759.28;6192170;23;20092;-88
2024/03/06 14:05:52;;;;;;;11.43;8.23;;;;;;;8.26;65.86;101755.88;6211847;23;20020;-89
2024/03/06 14:08:22;;;;;;;12.20;9.27;;;;;;;8.01;66.13;101758.31;6216630;23;20020;-88
2024/03/06 14:10:49;;;;;;;11.27;7.90;;;;;;;8.19;65.80;101763.72;6093827;23;20020;-88
2024/03/06 14:13:16;;;;;;;14.37;9.30;;;;;;;8.21;66.70;101765.47;6217125;23;20044;-89
2024/03/06 14:15:44;;;;;;;12.20;9.40;;;;;;;8.23;65.83;101769.88;6191686;23;20044;-88
2024/03/06 14:18:11;;;;;;;12.53;9.60;;;;;;;8.15;66.59;101768.94;6216549;23;20066;-89
2024/03/06 14:20:39;;;;;;;12.70;8.90;;;;;;;8.15;68.30;101782.09;6115561;23;20074;-88
2024/03/06 14:23:07;;;;;;;20.30;9.70;;;;;;;8.16;68.22;101774.22;6115821;23;20024;-89
2024/03/06 14:25:37;;;;;;;13.10;8.87;;;;;;;8.09;67.96;101777.69;6191793;23;20024;-88
2024/03/06 14:28:04;;;;;;;13.50;10.40;;;;;;;8.07;69.52;101778.53;6216902;23;20098;-88
2024/03/06 14:30:31;;;;;;;12.87;9.70;;;;;;;8.14;71.33;101772.44;6115775;23;20355;-88
2024/03/06 14:32:58;;;;;;;13.90;10.20;;;;;;;8.09;70.00;101768.91;6192196;23;20432;-86
2024/03/06 14:35:26;;;;;;;14.77;10.80;;;;;;;8.05;68.90;101782.91;6192026;23;20020;-89
2024/03/06 14:37:53;;;;;;;14.90;11.00;;;;;;;7.86;70.08;101773.97;6217176;23;20027;-86
2024/03/06 14:40:20;;;;;;;17.47;10.67;;;;;;;7.76;69.99;101774.78;6216458;23;20352;-88
2024/03/06 14:42:48;;;;;;;15.57;11.23;;;;;;;7.84;71.46;101778.34;6241556;23;20027;-87
2024/03/06 14:45:17;;;;;;;15.93;10.87;;;;;;;7.93;71.82;101782.81;6118462;23;20020;-87
2024/03/06 14:47:44;;;;;;;17.17;11.33;;;;;;;7.81;71.36;101775.69;6191910;22;20028;-87
2024/03/06 14:50:12;;;;;;;17.60;11.77;;;;;;;7.62;72.96;101788.66;6193270;23;20083;-87
2024/03/06 14:52:39;;;;;;;15.87;11.60;;;;;;;7.67;73.55;101794.00;6193218;23;20028;-87
2024/03/06 14:55:08;;;;;;;15.77;11.50;;;;;;;7.60;74.92;101797.41;6217649;23;20359;-87
2024/03/06 14:57:36;;;;;;;15.67;11.93;;;;;;;7.55;75.97;101791.22;6217655;22;20094;-87
2024/03/06 15:00:06;;;;;;;17.40;12.07;;;;;;;7.51;76.28;101792.06;6090703;23;20055;-87
2024/03/06 15:02:34;;;;;;;16.57;11.57;;;;;;;7.30;78.14;101796.22;6193423;23;20079;-87
2024/03/06 15:05:02;;;;;;;20.23;13.03;;;;;;;7.47;80.01;101798.16;6192838;23;20043;-88
2024/03/06 15:07:29;;;;;;;16.23;11.73;;;;;;;7.39;79.52;101792.81;6242467;22;20094;-86
2024/03/06 15:09:57;;;;;;;15.97;11.40;;;;;;;7.47;78.69;101792.88;6217944;23;20020;-91
2024/03/06 15:12:25;;;;;;;18.00;12.53;;;;;;;7.46;79.92;101785.88;6167907;23;20471;-87
2024/03/06 15:14:54;;;;;;;17.27;12.03;;;;;;;7.42;80.34;101786.72;6192310;23;20481;-86
2024/03/06 15:17:27;;;;;;;18.30;12.43;;;;;;;7.40;80.05;101784.09;6192836;23;20034;-88
2024/03/06 15:19:55;;;;;;;17.13;12.37;;;;;;;7.38;80.84;101790.16;6218055;23;20028;-89
2024/03/06 15:22:22;;;;;;;17.13;12.60;;;;;;;7.41;80.68;101785.84;6193454;23;20403;-88
2024/03/06 15:24:49;;;;;;;18.40;13.07;;;;;;;7.36;81.84;101786.66;6192764;23;20047;-90
2024/03/06 15:27:16;;;;;;;17.67;12.07;;;;;;;7.33;82.84;101793.63;6192506;23;20020;-89
